Albion, Idaho
Current Conditions -  °F | °C
As of 8:53 AM on Sunday 23 Nov 2014 (Local Time) from KBYI Reporting Station
Unknown Precip Unknown Precip  
Wind Chill: 20°   Ceiling: Unl
Heat Index: 32°   Visibility: 10mi
Dew Point: 24°   Wind: 21mph
Humidity: 73%   Direction: 260°W
Pressure: 30.19"   Gusts: 31mph
Location:  42.41°N, 113.58°W
Report Text: KBYI 231553Z AUTO 26018G27KT 10SM UP CLR 00/M04 A3019 RMK AO2 PK WND 28030/1537 UPB1455 SLP238 P0000 T00001044
Loading
Personal Weather Stations






























Interactive Weather Map New forecast layout! Learn more

10-Day Weather Forecast

Advertisements
Track Severe Weather on mobile